sensor_id;sensor_type;location;lat;lon;timestamp;temperature;humidity
24262;DHT22;12385;51.412;5.540;2022-12-10T00:00:40;0.20;99.90
24262;DHT22;12385;51.412;5.540;2022-12-10T00:03:05;0.20;99.90
24262;DHT22;12385;51.412;5.540;2022-12-10T00:05:35;0.10;99.90
24262;DHT22;12385;51.412;5.540;2022-12-10T00:08:01;0.10;99.90
24262;DHT22;12385;51.412;5.540;2022-12-10T00:10:27;0.10;99.90
24262;DHT22;12385;51.412;5.540;2022-12-10T00:12:52;0.10;99.90
24262;DHT22;12385;51.412;5.540;2022-12-10T00:15:18;0.00;99.90
24262;DHT22;12385;51.412;5.540;2022-12-10T00:17:43;0.00;99.90
24262;DHT22;12385;51.412;5.540;2022-12-10T00:20:09;0.00;99.90
24262;DHT22;12385;51.412;5.540;2022-12-10T00:22:35;0.00;99.90
24262;DHT22;12385;51.412;5.540;2022-12-10T00:25:01;-0.10;99.90
24262;DHT22;12385;51.412;5.540;2022-12-10T00:27:27;-0.10;99.90
24262;DHT22;12385;51.412;5.540;2022-12-10T00:29:52;-0.10;99.90
24262;DHT22;12385;51.412;5.540;2022-12-10T00:32:18;-0.20;99.90
24262;DHT22;12385;51.412;5.540;2022-12-10T00:34:44;-0.20;99.90
24262;DHT22;12385;51.412;5.540;2022-12-10T00:37:09;-0.20;99.90
24262;DHT22;12385;51.412;5.540;2022-12-10T00:39:35;-0.20;99.90
24262;DHT22;12385;51.412;5.540;2022-12-10T00:42:01;-0.30;99.90
24262;DHT22;12385;51.412;5.540;2022-12-10T00:44:27;-0.30;99.90
24262;DHT22;12385;51.412;5.540;2022-12-10T00:46:52;-0.30;99.90
24262;DHT22;12385;51.412;5.540;2022-12-10T00:49:18;-0.40;99.90
24262;DHT22;12385;51.412;5.540;2022-12-10T00:51:44;-0.40;99.90
24262;DHT22;12385;51.412;5.540;2022-12-10T00:54:09;-0.40;99.90
24262;DHT22;12385;51.412;5.540;2022-12-10T00:56:36;-0.40;99.90
24262;DHT22;12385;51.412;5.540;2022-12-10T00:59:03;-0.40;99.90
24262;DHT22;12385;51.412;5.540;2022-12-10T01:01:31;-0.40;99.90
24262;DHT22;12385;51.412;5.540;2022-12-10T01:04:00;-0.40;99.90
24262;DHT22;12385;51.412;5.540;2022-12-10T01:06:35;-0.40;99.90
24262;DHT22;12385;51.412;5.540;2022-12-10T01:09:05;-0.40;99.90
24262;DHT22;12385;51.412;5.540;2022-12-10T01:11:34;-0.50;99.90
24262;DHT22;12385;51.412;5.540;2022-12-10T01:14:00;-0.50;99.90
24262;DHT22;12385;51.412;5.540;2022-12-10T01:16:26;-0.50;99.90
24262;DHT22;12385;51.412;5.540;2022-12-10T01:18:53;-0.50;99.90
24262;DHT22;12385;51.412;5.540;2022-12-10T01:21:20;-0.50;99.90
24262;DHT22;12385;51.412;5.540;2022-12-10T01:23:48;-0.50;99.90
24262;DHT22;12385;51.412;5.540;2022-12-10T01:26:21;-0.60;99.90
24262;DHT22;12385;51.412;5.540;2022-12-10T01:28:48;-0.60;99.90
24262;DHT22;12385;51.412;5.540;2022-12-10T01:31:19;-0.60;99.90
24262;DHT22;12385;51.412;5.540;2022-12-10T01:33:46;-0.50;99.90
24262;DHT22;12385;51.412;5.540;2022-12-10T01:36:23;-0.50;99.90
24262;DHT22;12385;51.412;5.540;2022-12-10T01:38:50;-0.50;99.90
24262;DHT22;12385;51.412;5.540;2022-12-10T01:43:57;-0.50;99.90
24262;DHT22;12385;51.412;5.540;2022-12-10T01:46:32;-0.50;99.90
24262;DHT22;12385;51.412;5.540;2022-12-10T01:49:00;-0.50;99.90
24262;DHT22;12385;51.412;5.540;2022-12-10T01:51:28;-0.40;99.90
24262;DHT22;12385;51.412;5.540;2022-12-10T01:53:54;-0.50;99.90
24262;DHT22;12385;51.412;5.540;2022-12-10T01:56:21;-0.40;99.90
24262;DHT22;12385;51.412;5.540;2022-12-10T01:58:49;-0.40;99.90
24262;DHT22;12385;51.412;5.540;2022-12-10T02:06:59;-0.20;99.90
24262;DHT22;12385;51.412;5.540;2022-12-10T02:09:48;-0.20;99.90
24262;DHT22;12385;51.412;5.540;2022-12-10T02:12:23;-0.20;99.90
24262;DHT22;12385;51.412;5.540;2022-12-10T02:15:13;-0.10;99.90
24262;DHT22;12385;51.412;5.540;2022-12-10T02:20:18;-0.10;99.90
24262;DHT22;12385;51.412;5.540;2022-12-10T02:22:50;-0.10;99.90
24262;DHT22;12385;51.412;5.540;2022-12-10T02:25:19;0.00;99.90
24262;DHT22;12385;51.412;5.540;2022-12-10T02:28:22;0.00;99.90
24262;DHT22;12385;51.412;5.540;2022-12-10T02:30:51;0.00;99.90
24262;DHT22;12385;51.412;5.540;2022-12-10T02:33:19;0.00;99.90
24262;DHT22;12385;51.412;5.540;2022-12-10T02:35:47;0.00;99.90
24262;DHT22;12385;51.412;5.540;2022-12-10T02:38:22;0.00;99.90
24262;DHT22;12385;51.412;5.540;2022-12-10T02:40:52;0.00;99.90
24262;DHT22;12385;51.412;5.540;2022-12-10T02:43:20;0.10;99.90
24262;DHT22;12385;51.412;5.540;2022-12-10T02:45:48;0.10;99.90
24262;DHT22;12385;51.412;5.540;2022-12-10T02:48:15;0.10;99.90
24262;DHT22;12385;51.412;5.540;2022-12-10T02:50:41;0.10;99.90
24262;DHT22;12385;51.412;5.540;2022-12-10T02:53:06;0.10;99.90
24262;DHT22;12385;51.412;5.540;2022-12-10T02:58:24;0.10;99.90
24262;DHT22;12385;51.412;5.540;2022-12-10T03:01:11;0.10;99.90
24262;DHT22;12385;51.412;5.540;2022-12-10T03:03:41;0.10;99.90
24262;DHT22;12385;51.412;5.540;2022-12-10T03:06:15;0.10;99.90
24262;DHT22;12385;51.412;5.540;2022-12-10T03:09:05;0.20;99.90
24262;DHT22;12385;51.412;5.540;2022-12-10T03:11:31;0.20;99.90
24262;DHT22;12385;51.412;5.540;2022-12-10T03:14:18;0.20;99.90
24262;DHT22;12385;51.412;5.540;2022-12-10T03:16:50;0.20;99.90
24262;DHT22;12385;51.412;5.540;2022-12-10T03:19:22;0.30;99.90
24262;DHT22;12385;51.412;5.540;2022-12-10T03:21:51;0.30;99.90
24262;DHT22;12385;51.412;5.540;2022-12-10T03:24:18;0.40;99.90
24262;DHT22;12385;51.412;5.540;2022-12-10T03:26:47;0.30;99.90
24262;DHT22;12385;51.412;5.540;2022-12-10T03:29:20;0.30;99.90
24262;DHT22;12385;51.412;5.540;2022-12-10T03:31:48;0.30;99.90
24262;DHT22;12385;51.412;5.540;2022-12-10T03:34:14;0.30;99.90
24262;DHT22;12385;51.412;5.540;2022-12-10T03:36:40;0.30;99.90
24262;DHT22;12385;51.412;5.540;2022-12-10T03:39:07;0.30;99.90
24262;DHT22;12385;51.412;5.540;2022-12-10T03:41:33;0.40;99.90
24262;DHT22;12385;51.412;5.540;2022-12-10T03:43:59;0.40;99.90
24262;DHT22;12385;51.412;5.540;2022-12-10T03:46:27;0.40;99.90
24262;DHT22;12385;51.412;5.540;2022-12-10T03:48:53;0.40;99.90
24262;DHT22;12385;51.412;5.540;2022-12-10T03:51:19;0.40;99.90
24262;DHT22;12385;51.412;5.540;2022-12-10T03:53:45;0.40;99.90
24262;DHT22;12385;51.412;5.540;2022-12-10T03:56:11;0.40;99.90
24262;DHT22;12385;51.412;5.540;2022-12-10T03:58:37;0.40;99.90
24262;DHT22;12385;51.412;5.540;2022-12-10T04:01:03;0.40;99.90
24262;DHT22;12385;51.412;5.540;2022-12-10T04:03:29;0.30;99.90
24262;DHT22;12385;51.412;5.540;2022-12-10T04:06:01;0.40;99.90
24262;DHT22;12385;51.412;5.540;2022-12-10T04:08:26;0.40;99.90
24262;DHT22;12385;51.412;5.540;2022-12-10T04:10:52;0.40;99.90
24262;DHT22;12385;51.412;5.540;2022-12-10T04:13:18;0.40;99.90
24262;DHT22;12385;51.412;5.540;2022-12-10T04:16:02;0.40;99.90
24262;DHT22;12385;51.412;5.540;2022-12-10T04:18:46;0.50;99.90
24262;DHT22;12385;51.412;5.540;2022-12-10T04:21:11;0.50;99.90
24262;DHT22;12385;51.412;5.540;2022-12-10T04:23:55;0.50;99.90
24262;DHT22;12385;51.412;5.540;2022-12-10T04:26:39;0.50;99.90
24262;DHT22;12385;51.412;5.540;2022-12-10T04:29:19;0.50;99.90
24262;DHT22;12385;51.412;5.540;2022-12-10T04:31:44;0.50;99.90
24262;DHT22;12385;51.412;5.540;2022-12-10T04:34:10;0.40;99.90
24262;DHT22;12385;51.412;5.540;2022-12-10T04:36:36;0.40;99.90
24262;DHT22;12385;51.412;5.540;2022-12-10T04:39:01;0.40;99.90
24262;DHT22;12385;51.412;5.540;2022-12-10T04:41:27;0.40;99.90
24262;DHT22;12385;51.412;5.540;2022-12-10T04:43:53;0.40;99.90
24262;DHT22;12385;51.412;5.540;2022-12-10T04:46:19;0.40;99.90
24262;DHT22;12385;51.412;5.540;2022-12-10T04:48:45;0.40;99.90
24262;DHT22;12385;51.412;5.540;2022-12-10T04:51:10;0.40;99.90
24262;DHT22;12385;51.412;5.540;2022-12-10T04:53:36;0.40;99.90
24262;DHT22;12385;51.412;5.540;2022-12-10T04:56:01;0.40;99.90
24262;DHT22;12385;51.412;5.540;2022-12-10T04:58:30;0.40;99.90
24262;DHT22;12385;51.412;5.540;2022-12-10T05:01:03;0.40;99.90
24262;DHT22;12385;51.412;5.540;2022-12-10T05:03:29;0.50;99.90
24262;DHT22;12385;51.412;5.540;2022-12-10T05:05:55;0.50;99.90
24262;DHT22;12385;51.412;5.540;2022-12-10T05:08:20;0.40;99.90
24262;DHT22;12385;51.412;5.540;2022-12-10T05:10:46;0.40;99.90
24262;DHT22;12385;51.412;5.540;2022-12-10T05:13:11;0.40;99.90
24262;DHT22;12385;51.412;5.540;2022-12-10T05:15:38;0.40;99.90
24262;DHT22;12385;51.412;5.540;2022-12-10T05:18:04;0.50;99.90
24262;DHT22;12385;51.412;5.540;2022-12-10T05:20:30;0.50;99.90
24262;DHT22;12385;51.412;5.540;2022-12-10T05:22:56;0.50;99.90
24262;DHT22;12385;51.412;5.540;2022-12-10T05:25:40;0.50;99.90
24262;DHT22;12385;51.412;5.540;2022-12-10T05:28:21;0.50;99.90
24262;DHT22;12385;51.412;5.540;2022-12-10T05:30:47;0.40;99.90
24262;DHT22;12385;51.412;5.540;2022-12-10T05:33:13;0.40;99.90
24262;DHT22;12385;51.412;5.540;2022-12-10T05:35:39;0.40;99.90
24262;DHT22;12385;51.412;5.540;2022-12-10T05:38:04;0.40;99.90
24262;DHT22;12385;51.412;5.540;2022-12-10T05:40:34;0.40;99.90
24262;DHT22;12385;51.412;5.540;2022-12-10T05:43:00;0.40;99.90
24262;DHT22;12385;51.412;5.540;2022-12-10T05:45:26;0.40;99.90
24262;DHT22;12385;51.412;5.540;2022-12-10T05:47:51;0.40;99.90
24262;DHT22;12385;51.412;5.540;2022-12-10T05:50:17;0.40;99.90
24262;DHT22;12385;51.412;5.540;2022-12-10T05:52:43;0.40;99.90
24262;DHT22;12385;51.412;5.540;2022-12-10T05:55:09;0.40;99.90
24262;DHT22;12385;51.412;5.540;2022-12-10T05:57:38;0.30;99.90
24262;DHT22;12385;51.412;5.540;2022-12-10T06:00:04;0.40;99.90
24262;DHT22;12385;51.412;5.540;2022-12-10T06:02:33;0.30;99.90
24262;DHT22;12385;51.412;5.540;2022-12-10T06:04:59;0.40;99.90
24262;DHT22;12385;51.412;5.540;2022-12-10T06:07:25;0.40;99.90
24262;DHT22;12385;51.412;5.540;2022-12-10T06:09:50;0.40;99.90
24262;DHT22;12385;51.412;5.540;2022-12-10T06:12:16;0.40;99.90
24262;DHT22;12385;51.412;5.540;2022-12-10T06:14:42;0.40;99.90
24262;DHT22;12385;51.412;5.540;2022-12-10T06:17:08;0.40;99.90
24262;DHT22;12385;51.412;5.540;2022-12-10T06:19:33;0.40;99.90
24262;DHT22;12385;51.412;5.540;2022-12-10T06:21:59;0.50;99.90
24262;DHT22;12385;51.412;5.540;2022-12-10T06:24:25;0.50;99.90
24262;DHT22;12385;51.412;5.540;2022-12-10T06:26:50;0.40;99.90
24262;DHT22;12385;51.412;5.540;2022-12-10T06:29:16;0.40;99.90
24262;DHT22;12385;51.412;5.540;2022-12-10T06:31:42;0.50;99.90
24262;DHT22;12385;51.412;5.540;2022-12-10T06:34:07;0.50;99.90
24262;DHT22;12385;51.412;5.540;2022-12-10T06:36:33;0.40;99.90
24262;DHT22;12385;51.412;5.540;2022-12-10T06:38:59;0.40;99.90
24262;DHT22;12385;51.412;5.540;2022-12-10T06:41:24;0.40;99.90
24262;DHT22;12385;51.412;5.540;2022-12-10T06:43:50;0.40;99.90
24262;DHT22;12385;51.412;5.540;2022-12-10T06:46:17;0.40;99.90
24262;DHT22;12385;51.412;5.540;2022-12-10T06:48:43;0.40;99.90
24262;DHT22;12385;51.412;5.540;2022-12-10T06:51:10;0.40;99.90
24262;DHT22;12385;51.412;5.540;2022-12-10T06:53:36;0.40;99.90
24262;DHT22;12385;51.412;5.540;2022-12-10T06:56:03;0.40;99.90
24262;DHT22;12385;51.412;5.540;2022-12-10T06:58:30;0.40;99.90
24262;DHT22;12385;51.412;5.540;2022-12-10T07:03:29;0.40;99.90
24262;DHT22;12385;51.412;5.540;2022-12-10T07:06:00;0.40;99.90
24262;DHT22;12385;51.412;5.540;2022-12-10T07:08:26;0.30;99.90
24262;DHT22;12385;51.412;5.540;2022-12-10T07:10:52;0.40;99.90
24262;DHT22;12385;51.412;5.540;2022-12-10T07:13:18;0.40;99.90
24262;DHT22;12385;51.412;5.540;2022-12-10T07:15:43;0.40;99.90
24262;DHT22;12385;51.412;5.540;2022-12-10T07:18:10;0.40;99.90
24262;DHT22;12385;51.412;5.540;2022-12-10T07:20:36;0.30;99.90
24262;DHT22;12385;51.412;5.540;2022-12-10T07:23:01;0.30;99.90
24262;DHT22;12385;51.412;5.540;2022-12-10T07:25:27;0.30;99.90
24262;DHT22;12385;51.412;5.540;2022-12-10T07:27:52;0.30;99.90
24262;DHT22;12385;51.412;5.540;2022-12-10T07:30:18;0.30;99.90
24262;DHT22;12385;51.412;5.540;2022-12-10T07:32:44;0.30;99.90
24262;DHT22;12385;51.412;5.540;2022-12-10T07:35:09;0.30;99.90
24262;DHT22;12385;51.412;5.540;2022-12-10T07:37:35;0.20;99.90
24262;DHT22;12385;51.412;5.540;2022-12-10T07:40:00;0.20;99.90
24262;DHT22;12385;51.412;5.540;2022-12-10T07:42:26;0.30;99.90
24262;DHT22;12385;51.412;5.540;2022-12-10T07:44:51;0.30;99.90
24262;DHT22;12385;51.412;5.540;2022-12-10T07:47:17;0.30;99.90
24262;DHT22;12385;51.412;5.540;2022-12-10T07:49:43;0.40;99.90
24262;DHT22;12385;51.412;5.540;2022-12-10T07:52:09;0.30;99.90
24262;DHT22;12385;51.412;5.540;2022-12-10T07:54:34;0.40;99.90
24262;DHT22;12385;51.412;5.540;2022-12-10T07:57:00;0.40;99.90
24262;DHT22;12385;51.412;5.540;2022-12-10T07:59:26;0.40;99.90
24262;DHT22;12385;51.412;5.540;2022-12-10T08:01:52;0.40;99.90
24262;DHT22;12385;51.412;5.540;2022-12-10T08:04:18;0.30;99.90
24262;DHT22;12385;51.412;5.540;2022-12-10T08:06:44;0.30;99.90
24262;DHT22;12385;51.412;5.540;2022-12-10T08:09:10;0.30;99.90
24262;DHT22;12385;51.412;5.540;2022-12-10T08:11:36;0.30;99.90
24262;DHT22;12385;51.412;5.540;2022-12-10T08:14:01;0.30;99.90
24262;DHT22;12385;51.412;5.540;2022-12-10T08:16:29;0.30;99.90
24262;DHT22;12385;51.412;5.540;2022-12-10T08:18:56;0.30;99.90
24262;DHT22;12385;51.412;5.540;2022-12-10T08:21:25;0.30;99.90
24262;DHT22;12385;51.412;5.540;2022-12-10T08:23:51;0.40;99.90
24262;DHT22;12385;51.412;5.540;2022-12-10T08:26:19;0.40;99.90
24262;DHT22;12385;51.412;5.540;2022-12-10T08:28:47;0.40;99.90
24262;DHT22;12385;51.412;5.540;2022-12-10T08:31:14;0.50;99.90
24262;DHT22;12385;51.412;5.540;2022-12-10T08:33:40;0.40;99.90
24262;DHT22;12385;51.412;5.540;2022-12-10T08:36:08;0.40;99.90
24262;DHT22;12385;51.412;5.540;2022-12-10T08:38:34;0.40;99.90
24262;DHT22;12385;51.412;5.540;2022-12-10T08:41:09;0.40;99.90
24262;DHT22;12385;51.412;5.540;2022-12-10T08:43:35;0.40;99.90
24262;DHT22;12385;51.412;5.540;2022-12-10T08:46:01;0.40;99.90
24262;DHT22;12385;51.412;5.540;2022-12-10T08:48:27;0.40;99.90
24262;DHT22;12385;51.412;5.540;2022-12-10T08:50:53;0.50;99.90
24262;DHT22;12385;51.412;5.540;2022-12-10T08:53:18;0.50;99.90
24262;DHT22;12385;51.412;5.540;2022-12-10T08:55:44;0.50;99.90
24262;DHT22;12385;51.412;5.540;2022-12-10T08:58:09;0.60;99.90
24262;DHT22;12385;51.412;5.540;2022-12-10T09:00:36;0.60;99.90
24262;DHT22;12385;51.412;5.540;2022-12-10T09:03:02;0.50;99.90
24262;DHT22;12385;51.412;5.540;2022-12-10T09:05:28;0.50;99.90
24262;DHT22;12385;51.412;5.540;2022-12-10T09:07:53;0.50;99.90
24262;DHT22;12385;51.412;5.540;2022-12-10T09:10:19;0.50;99.90
24262;DHT22;12385;51.412;5.540;2022-12-10T09:12:45;0.50;99.90
24262;DHT22;12385;51.412;5.540;2022-12-10T09:15:11;0.50;99.90
24262;DHT22;12385;51.412;5.540;2022-12-10T09:17:37;0.50;99.90
24262;DHT22;12385;51.412;5.540;2022-12-10T09:20:04;0.50;99.90
24262;DHT22;12385;51.412;5.540;2022-12-10T09:22:31;0.50;99.90
24262;DHT22;12385;51.412;5.540;2022-12-10T09:24:56;0.50;99.90
24262;DHT22;12385;51.412;5.540;2022-12-10T09:27:22;0.50;99.90
24262;DHT22;12385;51.412;5.540;2022-12-10T09:29:48;0.50;99.90
24262;DHT22;12385;51.412;5.540;2022-12-10T09:32:14;0.50;99.90
24262;DHT22;12385;51.412;5.540;2022-12-10T09:34:39;0.60;99.90
24262;DHT22;12385;51.412;5.540;2022-12-10T09:37:05;0.60;99.90
24262;DHT22;12385;51.412;5.540;2022-12-10T09:39:30;0.60;99.90
24262;DHT22;12385;51.412;5.540;2022-12-10T09:42:07;0.60;99.90
24262;DHT22;12385;51.412;5.540;2022-12-10T09:44:47;0.70;99.90
24262;DHT22;12385;51.412;5.540;2022-12-10T09:47:14;0.70;99.90
24262;DHT22;12385;51.412;5.540;2022-12-10T09:52:43;0.70;99.90
24262;DHT22;12385;51.412;5.540;2022-12-10T09:55:16;0.60;99.90
24262;DHT22;12385;51.412;5.540;2022-12-10T09:57:46;0.60;99.90
24262;DHT22;12385;51.412;5.540;2022-12-10T10:00:20;0.60;99.90
24262;DHT22;12385;51.412;5.540;2022-12-10T10:02:47;0.60;99.90
24262;DHT22;12385;51.412;5.540;2022-12-10T10:05:28;0.60;99.90
24262;DHT22;12385;51.412;5.540;2022-12-10T10:07:56;0.60;99.90
24262;DHT22;12385;51.412;5.540;2022-12-10T10:10:25;0.60;99.90
24262;DHT22;12385;51.412;5.540;2022-12-10T10:15:35;0.60;99.90
24262;DHT22;12385;51.412;5.540;2022-12-10T10:18:09;0.50;99.90
24262;DHT22;12385;51.412;5.540;2022-12-10T10:20:36;0.60;99.90
24262;DHT22;12385;51.412;5.540;2022-12-10T10:23:02;0.60;99.90
24262;DHT22;12385;51.412;5.540;2022-12-10T10:25:28;0.70;99.90
24262;DHT22;12385;51.412;5.540;2022-12-10T10:27:54;0.70;99.90
24262;DHT22;12385;51.412;5.540;2022-12-10T10:30:21;0.80;99.90
24262;DHT22;12385;51.412;5.540;2022-12-10T10:32:49;0.70;99.90
24262;DHT22;12385;51.412;5.540;2022-12-10T10:35:28;0.80;99.90
24262;DHT22;12385;51.412;5.540;2022-12-10T10:38:00;0.90;99.90
24262;DHT22;12385;51.412;5.540;2022-12-10T10:40:50;1.00;99.90
24262;DHT22;12385;51.412;5.540;2022-12-10T10:43:20;1.00;99.90
24262;DHT22;12385;51.412;5.540;2022-12-10T10:45:59;1.00;99.90
24262;DHT22;12385;51.412;5.540;2022-12-10T10:48:27;1.00;99.90
24262;DHT22;12385;51.412;5.540;2022-12-10T10:51:20;1.10;99.90
24262;DHT22;12385;51.412;5.540;2022-12-10T10:53:53;1.10;99.90
24262;DHT22;12385;51.412;5.540;2022-12-10T10:56:23;1.10;99.90
24262;DHT22;12385;51.412;5.540;2022-12-10T10:58:54;1.10;99.90
24262;DHT22;12385;51.412;5.540;2022-12-10T11:01:20;1.10;99.90
24262;DHT22;12385;51.412;5.540;2022-12-10T11:03:49;1.20;99.90
24262;DHT22;12385;51.412;5.540;2022-12-10T11:06:16;1.20;99.90
24262;DHT22;12385;51.412;5.540;2022-12-10T11:08:43;1.20;99.90
24262;DHT22;12385;51.412;5.540;2022-12-10T11:11:19;1.20;99.90
24262;DHT22;12385;51.412;5.540;2022-12-10T11:13:45;1.20;99.90
24262;DHT22;12385;51.412;5.540;2022-12-10T11:18:41;1.10;99.90
24262;DHT22;12385;51.412;5.540;2022-12-10T11:21:17;1.10;99.90
24262;DHT22;12385;51.412;5.540;2022-12-10T11:23:52;1.10;99.90
24262;DHT22;12385;51.412;5.540;2022-12-10T11:42:38;1.20;99.90
24262;DHT22;12385;51.412;5.540;2022-12-10T11:50:57;1.30;99.90
24262;DHT22;12385;51.412;5.540;2022-12-10T12:04:24;1.30;99.90
24262;DHT22;12385;51.412;5.540;2022-12-10T12:13:00;1.40;99.90
24262;DHT22;12385;51.412;5.540;2022-12-10T12:15:42;1.40;99.90
24262;DHT22;12385;51.412;5.540;2022-12-10T12:18:20;1.30;99.90
24262;DHT22;12385;51.412;5.540;2022-12-10T12:20:54;1.30;99.90
24262;DHT22;12385;51.412;5.540;2022-12-10T12:23:29;1.30;99.90
24262;DHT22;12385;51.412;5.540;2022-12-10T12:26:03;1.30;99.90
24262;DHT22;12385;51.412;5.540;2022-12-10T12:28:36;1.20;99.90
24262;DHT22;12385;51.412;5.540;2022-12-10T12:31:14;1.20;99.90
24262;DHT22;12385;51.412;5.540;2022-12-10T12:33:59;1.10;99.90
24262;DHT22;12385;51.412;5.540;2022-12-10T12:36:28;1.10;99.90
24262;DHT22;12385;51.412;5.540;2022-12-10T12:39:19;1.20;99.90
24262;DHT22;12385;51.412;5.540;2022-12-10T12:44:22;1.10;99.90
24262;DHT22;12385;51.412;5.540;2022-12-10T12:46:56;1.20;99.90
24262;DHT22;12385;51.412;5.540;2022-12-10T12:49:36;1.20;99.90
24262;DHT22;12385;51.412;5.540;2022-12-10T12:55:03;1.30;99.90
24262;DHT22;12385;51.412;5.540;2022-12-10T12:57:34;1.30;99.90
24262;DHT22;12385;51.412;5.540;2022-12-10T13:00:09;1.40;99.90
24262;DHT22;12385;51.412;5.540;2022-12-10T13:05:40;1.40;99.90
24262;DHT22;12385;51.412;5.540;2022-12-10T13:10:54;1.30;99.90
24262;DHT22;12385;51.412;5.540;2022-12-10T13:15:53;1.40;99.90
24262;DHT22;12385;51.412;5.540;2022-12-10T13:18:22;1.40;99.90
24262;DHT22;12385;51.412;5.540;2022-12-10T13:20:50;1.40;99.90
24262;DHT22;12385;51.412;5.540;2022-12-10T13:36:26;1.40;99.90
24262;DHT22;12385;51.412;5.540;2022-12-10T13:39:59;1.40;99.90
24262;DHT22;12385;51.412;5.540;2022-12-10T13:51:02;1.50;99.90
24262;DHT22;12385;51.412;5.540;2022-12-10T14:04:35;1.40;99.90
24262;DHT22;12385;51.412;5.540;2022-12-10T14:07:02;1.40;99.90
24262;DHT22;12385;51.412;5.540;2022-12-10T14:09:33;1.40;99.90
24262;DHT22;12385;51.412;5.540;2022-12-10T14:12:17;1.40;99.90
24262;DHT22;12385;51.412;5.540;2022-12-10T14:14:46;1.40;99.90
24262;DHT22;12385;51.412;5.540;2022-12-10T14:17:15;1.40;99.90
24262;DHT22;12385;51.412;5.540;2022-12-10T14:19:45;1.40;99.90
24262;DHT22;12385;51.412;5.540;2022-12-10T14:22:21;1.40;99.90
24262;DHT22;12385;51.412;5.540;2022-12-10T14:24:50;1.50;99.90
24262;DHT22;12385;51.412;5.540;2022-12-10T14:27:19;1.50;99.90
24262;DHT22;12385;51.412;5.540;2022-12-10T14:29:50;1.50;99.90
24262;DHT22;12385;51.412;5.540;2022-12-10T14:32:18;1.40;99.90
24262;DHT22;12385;51.412;5.540;2022-12-10T14:34:54;1.40;99.90
24262;DHT22;12385;51.412;5.540;2022-12-10T14:37:25;1.50;99.90
24262;DHT22;12385;51.412;5.540;2022-12-10T14:39:51;1.50;99.90
24262;DHT22;12385;51.412;5.540;2022-12-10T14:42:17;1.50;99.90
24262;DHT22;12385;51.412;5.540;2022-12-10T14:44:44;1.50;99.90
24262;DHT22;12385;51.412;5.540;2022-12-10T14:47:16;1.50;99.90
24262;DHT22;12385;51.412;5.540;2022-12-10T14:49:45;1.50;99.90
24262;DHT22;12385;51.412;5.540;2022-12-10T14:52:14;1.50;99.90
24262;DHT22;12385;51.412;5.540;2022-12-10T14:54:40;1.50;99.90
24262;DHT22;12385;51.412;5.540;2022-12-10T14:57:09;1.50;99.90
24262;DHT22;12385;51.412;5.540;2022-12-10T14:59:52;1.50;99.90
24262;DHT22;12385;51.412;5.540;2022-12-10T15:02:29;1.40;99.90
24262;DHT22;12385;51.412;5.540;2022-12-10T15:04:56;1.40;99.90
24262;DHT22;12385;51.412;5.540;2022-12-10T15:07:25;1.40;99.90
24262;DHT22;12385;51.412;5.540;2022-12-10T15:09:53;1.40;99.90
24262;DHT22;12385;51.412;5.540;2022-12-10T15:12:42;1.40;99.90
24262;DHT22;12385;51.412;5.540;2022-12-10T15:15:16;1.50;99.90
24262;DHT22;12385;51.412;5.540;2022-12-10T15:17:54;1.40;99.90
24262;DHT22;12385;51.412;5.540;2022-12-10T15:20:24;1.40;99.90
24262;DHT22;12385;51.412;5.540;2022-12-10T15:22:51;1.40;99.90
24262;DHT22;12385;51.412;5.540;2022-12-10T15:25:26;1.40;99.90
24262;DHT22;12385;51.412;5.540;2022-12-10T15:27:55;1.40;99.90
24262;DHT22;12385;51.412;5.540;2022-12-10T15:30:39;1.40;99.90
24262;DHT22;12385;51.412;5.540;2022-12-10T15:33:31;1.40;99.90
24262;DHT22;12385;51.412;5.540;2022-12-10T15:35:59;1.40;99.90
24262;DHT22;12385;51.412;5.540;2022-12-10T15:38:25;1.40;99.90
24262;DHT22;12385;51.412;5.540;2022-12-10T15:41:00;1.40;99.90
24262;DHT22;12385;51.412;5.540;2022-12-10T15:44:14;1.40;99.90
24262;DHT22;12385;51.412;5.540;2022-12-10T15:46:48;1.40;99.90
24262;DHT22;12385;51.412;5.540;2022-12-10T15:49:14;1.30;99.90
24262;DHT22;12385;51.412;5.540;2022-12-10T15:51:40;1.30;99.90
24262;DHT22;12385;51.412;5.540;2022-12-10T15:54:35;1.40;99.90
24262;DHT22;12385;51.412;5.540;2022-12-10T15:57:19;1.40;99.90
24262;DHT22;12385;51.412;5.540;2022-12-10T15:59:47;1.40;99.90
24262;DHT22;12385;51.412;5.540;2022-12-10T16:02:39;1.30;99.90
24262;DHT22;12385;51.412;5.540;2022-12-10T16:05:20;1.30;99.90
24262;DHT22;12385;51.412;5.540;2022-12-10T16:07:48;1.30;99.90
24262;DHT22;12385;51.412;5.540;2022-12-10T16:10:17;1.30;99.90
24262;DHT22;12385;51.412;5.540;2022-12-10T16:12:45;1.40;99.90
24262;DHT22;12385;51.412;5.540;2022-12-10T16:15:20;1.40;99.90
24262;DHT22;12385;51.412;5.540;2022-12-10T16:17:46;1.40;99.90
24262;DHT22;12385;51.412;5.540;2022-12-10T16:22:38;1.40;99.90
24262;DHT22;12385;51.412;5.540;2022-12-10T16:25:03;1.40;99.90
24262;DHT22;12385;51.412;5.540;2022-12-10T16:27:29;1.40;99.90
24262;DHT22;12385;51.412;5.540;2022-12-10T16:29:58;1.40;99.90
24262;DHT22;12385;51.412;5.540;2022-12-10T16:32:23;1.30;99.90
24262;DHT22;12385;51.412;5.540;2022-12-10T16:34:49;1.30;99.90
24262;DHT22;12385;51.412;5.540;2022-12-10T16:37:15;1.40;99.90
24262;DHT22;12385;51.412;5.540;2022-12-10T16:39:41;1.40;99.90
24262;DHT22;12385;51.412;5.540;2022-12-10T16:42:10;1.40;99.90
24262;DHT22;12385;51.412;5.540;2022-12-10T16:44:36;1.30;99.90
24262;DHT22;12385;51.412;5.540;2022-12-10T16:47:11;1.40;99.90
24262;DHT22;12385;51.412;5.540;2022-12-10T16:49:37;1.40;99.90
24262;DHT22;12385;51.412;5.540;2022-12-10T16:52:03;1.30;99.90
24262;DHT22;12385;51.412;5.540;2022-12-10T16:54:29;1.30;99.90
24262;DHT22;12385;51.412;5.540;2022-12-10T16:56:56;1.40;99.90
24262;DHT22;12385;51.412;5.540;2022-12-10T16:59:21;1.40;99.90
24262;DHT22;12385;51.412;5.540;2022-12-10T17:01:47;1.40;99.90
24262;DHT22;12385;51.412;5.540;2022-12-10T17:04:12;1.40;99.90
24262;DHT22;12385;51.412;5.540;2022-12-10T17:06:38;1.30;99.90
24262;DHT22;12385;51.412;5.540;2022-12-10T17:09:04;1.40;99.90
24262;DHT22;12385;51.412;5.540;2022-12-10T17:11:39;1.40;99.90
24262;DHT22;12385;51.412;5.540;2022-12-10T17:16:41;1.30;99.90
24262;DHT22;12385;51.412;5.540;2022-12-10T17:19:11;1.30;99.90
24262;DHT22;12385;51.412;5.540;2022-12-10T17:21:36;1.30;99.90
24262;DHT22;12385;51.412;5.540;2022-12-10T17:24:02;1.30;99.90
24262;DHT22;12385;51.412;5.540;2022-12-10T17:26:30;1.20;99.90
24262;DHT22;12385;51.412;5.540;2022-12-10T17:29:22;1.30;99.90
24262;DHT22;12385;51.412;5.540;2022-12-10T17:31:48;1.30;99.90
24262;DHT22;12385;51.412;5.540;2022-12-10T17:34:14;1.30;99.90
24262;DHT22;12385;51.412;5.540;2022-12-10T17:36:41;1.30;99.90
24262;DHT22;12385;51.412;5.540;2022-12-10T17:39:09;1.30;99.90
24262;DHT22;12385;51.412;5.540;2022-12-10T17:41:37;1.40;99.90
24262;DHT22;12385;51.412;5.540;2022-12-10T17:44:03;1.40;99.90
24262;DHT22;12385;51.412;5.540;2022-12-10T17:46:29;1.40;99.90
24262;DHT22;12385;51.412;5.540;2022-12-10T17:48:55;1.40;99.90
24262;DHT22;12385;51.412;5.540;2022-12-10T17:51:21;1.40;99.90
24262;DHT22;12385;51.412;5.540;2022-12-10T17:53:47;1.40;99.90